createdAt,value
2023-03-12T00:01:59.797Z,0.0
2023-03-12T00:06:56.057Z,0.0
2023-03-12T00:12:12.617Z,0.0
2023-03-12T00:17:18.968Z,0.0
2023-03-12T00:22:25.341Z,0.0
2023-03-12T00:27:31.858Z,0.0
2023-03-12T00:33:02.254Z,0.0
2023-03-12T00:37:44.604Z,0.0
2023-03-12T00:42:51.094Z,0.0
2023-03-12T00:47:57.468Z,0.0
2023-03-12T00:53:03.842Z,0.0
2023-03-12T00:58:37.855Z,0.0
2023-03-12T01:03:44.373Z,0.0
2023-03-12T01:08:30.131Z,0.0
2023-03-12T01:13:35.508Z,0.0
2023-03-12T01:18:42.933Z,0.0
2023-03-12T01:23:39.380Z,0.0
2023-03-12T01:29:09.799Z,0.0
2023-03-12T01:34:02.194Z,0.0
2023-03-12T01:39:08.547Z,0.0
2023-03-12T01:44:14.923Z,0.0
2023-03-12T01:49:21.325Z,0.0
2023-03-12T01:54:27.732Z,0.0
2023-03-12T01:59:34.195Z,0.0
2023-03-12T02:04:44.175Z,0.0
2023-03-12T02:09:50.632Z,0.0
2023-03-12T02:14:57.026Z,0.0
2023-03-12T02:20:27.471Z,0.0
2023-03-12T02:24:59.756Z,0.0
2023-03-12T02:30:36.297Z,0.0
2023-03-12T02:35:46.775Z,0.0
2023-03-12T02:40:19.002Z,0.0
2023-03-12T02:45:35.415Z,0.0
2023-03-12T02:50:41.921Z,0.0
2023-03-12T02:55:51.865Z,0.0
2023-03-12T03:00:58.297Z,0.0
2023-03-12T03:06:04.592Z,0.0
2023-03-12T03:11:11.008Z,0.0
2023-03-12T03:19:49.667Z,0.0
2023-03-12T03:21:23.804Z,0.0
2023-03-12T03:26:30.321Z,0.0
2023-03-12T03:31:36.678Z,0.0
2023-03-12T03:36:43.057Z,0.0
2023-03-12T03:41:49.475Z,0.0
2023-03-12T03:46:45.814Z,0.0
2023-03-12T03:52:02.241Z,0.0
2023-03-12T03:57:28.653Z,0.0
2023-03-12T04:02:15.127Z,0.0
2023-03-12T04:07:21.494Z,0.0
2023-03-12T04:12:27.856Z,0.0
2023-03-12T04:17:34.285Z,0.0
2023-03-12T04:22:40.619Z,0.0
2023-03-12T04:27:46.994Z,0.0
2023-03-12T04:32:53.430Z,0.0
2023-03-12T04:38:19.958Z,0.0
2023-03-12T04:44:06.513Z,0.0
2023-03-12T04:49:24.940Z,0.0
2023-03-12T04:53:09.159Z,0.0
2023-03-12T04:58:25.538Z,0.0
2023-03-12T05:03:32.023Z,0.0
2023-03-12T05:08:38.367Z,0.0
2023-03-12T05:14:56.869Z,0.0
2023-03-12T05:18:51.111Z,0.0
2023-03-12T05:23:57.608Z,0.0
2023-03-12T05:29:05.562Z,4.0
2023-03-12T05:34:25.946Z,4.0
2023-03-12T05:42:02.691Z,16.0
2023-03-12T05:44:24.708Z,40.0
2023-03-12T05:49:31.080Z,64.0
2023-03-12T05:54:57.493Z,96.0
2023-03-12T05:59:43.868Z,136.0
2023-03-12T06:05:11.838Z,192.0
2023-03-12T06:09:58.170Z,260.0
2023-03-12T06:15:04.580Z,372.0
2023-03-12T06:20:35.001Z,496.0
2023-03-12T06:25:17.404Z,580.0
2023-03-12T06:30:43.846Z,656.0
2023-03-12T06:35:30.244Z,656.0
2023-03-12T06:40:37.072Z,724.0
2023-03-12T06:45:43.617Z,732.0
2023-03-12T06:50:50.029Z,772.0
2023-03-12T06:55:56.594Z,1072.0
2023-03-12T07:01:07.026Z,1696.0
2023-03-12T07:06:09.393Z,1492.0
2023-03-12T07:11:15.767Z,1428.0
2023-03-12T07:16:22.173Z,1884.0
2023-03-12T07:22:12.698Z,2104.0
2023-03-12T07:26:34.960Z,2592.0
2023-03-12T07:32:41.619Z,2484.0
2023-03-12T07:36:47.995Z,1804.0
2023-03-12T07:41:54.205Z,1996.0
2023-03-12T07:46:50.800Z,2760.0
2023-03-12T07:51:57.173Z,2416.0
2023-03-12T07:57:13.799Z,1936.0
2023-03-12T08:02:44.338Z,1940.0
2023-03-12T08:07:26.432Z,3232.0
2023-03-12T08:12:32.848Z,2800.0
2023-03-12T08:17:39.165Z,3336.0
2023-03-12T08:22:45.785Z,3672.0
2023-03-12T08:27:51.965Z,3364.0
2023-03-12T08:32:58.457Z,2340.0
2023-03-12T08:38:04.775Z,2596.0
2023-03-12T08:43:11.195Z,2852.0
2023-03-12T08:48:17.582Z,3024.0
2023-03-12T08:53:23.980Z,2540.0
2023-03-12T08:58:30.384Z,2368.0
2023-03-12T09:03:36.721Z,2480.0
2023-03-12T09:08:43.078Z,2720.0
2023-03-12T09:18:56.031Z,3716.0
2023-03-12T09:25:14.631Z,4036.0
2023-03-12T09:29:08.924Z,3540.0
2023-03-12T09:34:15.253Z,3392.0
2023-03-12T09:40:25.338Z,3084.0
2023-03-12T09:44:31.600Z,2888.0
2023-03-12T09:49:37.930Z,3040.0
2023-03-12T09:54:47.006Z,3000.0
2023-03-12T10:00:10.876Z,3228.0
2023-03-12T10:05:00.073Z,3804.0
2023-03-12T10:12:51.769Z,3556.0
2023-03-12T10:15:09.830Z,2980.0
2023-03-12T10:20:16.238Z,2908.0
2023-03-12T10:25:22.586Z,3544.0
2023-03-12T10:30:28.986Z,7448.0
2023-03-12T10:35:35.393Z,4124.0
2023-03-12T10:40:41.725Z,4160.0
2023-03-12T10:46:08.303Z,2228.0
2023-03-12T10:53:38.953Z,2320.0
2023-03-12T10:56:00.883Z,4028.0
2023-03-12T11:01:07.389Z,5432.0
2023-03-12T11:06:33.809Z,5068.0
2023-03-12T11:11:20.171Z,4872.0
2023-03-12T11:16:27.052Z,4752.0
2023-03-12T11:21:24.506Z,3288.0
2023-03-12T11:26:40.936Z,4400.0
2023-03-12T11:32:47.622Z,4804.0
2023-03-12T11:36:53.825Z,3240.0
2023-03-12T11:42:00.226Z,4900.0
2023-03-12T11:47:06.568Z,4588.0
2023-03-12T11:52:12.962Z,2652.0
2023-03-12T11:57:19.942Z,3292.0
2023-03-12T12:02:26.613Z,3184.0
2023-03-12T12:07:32.905Z,2020.0
2023-03-12T12:12:39.343Z,8064.0
2023-03-12T12:17:45.690Z,3752.0
2023-03-12T12:22:52.076Z,3136.0
2023-03-12T12:27:58.480Z,4384.0
2023-03-12T12:33:04.849Z,3108.0
2023-03-12T12:38:11.376Z,3440.0
2023-03-12T12:43:17.995Z,4776.0
2023-03-12T12:48:24.358Z,3580.0
2023-03-12T12:53:54.786Z,4260.0
2023-03-12T12:58:37.164Z,3304.0
2023-03-12T13:03:43.530Z,2544.0
2023-03-12T13:09:13.948Z,2404.0
2023-03-12T13:13:56.306Z,2072.0
2023-03-12T13:19:02.665Z,2560.0
2023-03-12T13:23:59.102Z,2748.0
2023-03-12T13:29:15.513Z,2500.0
2023-03-12T13:34:21.893Z,2816.0
2023-03-12T13:39:28.258Z,2484.0
2023-03-12T13:44:34.683Z,2844.0
2023-03-12T13:49:41.096Z,2608.0
2023-03-12T13:54:47.464Z,4668.0
2023-03-12T13:59:53.870Z,3208.0
2023-03-12T14:05:00.369Z,4748.0
2023-03-12T14:10:26.791Z,4332.0
2023-03-12T14:15:33.430Z,2920.0
2023-03-12T14:20:19.543Z,2388.0
2023-03-12T14:25:25.922Z,1768.0
2023-03-12T14:31:44.468Z,1628.0
2023-03-12T14:35:58.810Z,5868.0
2023-03-12T14:40:59.072Z,3356.0
2023-03-12T14:46:51.600Z,2788.0
2023-03-12T14:50:57.869Z,4104.0
2023-03-12T14:56:04.329Z,4384.0
2023-03-12T15:01:55.129Z,3776.0
2023-03-12T15:11:17.567Z,8660.0
2023-03-12T15:11:23.591Z,6272.0
2023-03-12T15:16:30.064Z,6592.0
2023-03-12T15:22:00.452Z,5328.0
2023-03-12T15:27:08.242Z,6084.0
2023-03-12T15:31:51.650Z,4992.0
2023-03-12T15:36:58.248Z,3784.0
2023-03-12T15:47:11.257Z,3920.0
2023-03-12T15:52:17.631Z,2884.0
2023-03-12T15:57:24.042Z,2608.0
2023-03-12T16:02:30.456Z,2364.0
2023-03-12T16:08:48.930Z,2308.0
2023-03-12T16:14:07.368Z,2688.0
2023-03-12T16:17:49.613Z,2356.0
2023-03-12T16:23:40.212Z,1952.0
2023-03-12T16:28:46.644Z,2508.0
2023-03-12T16:33:09.643Z,2064.0
2023-03-12T16:38:15.311Z,1896.0
2023-03-12T16:43:21.688Z,1412.0
2023-03-12T16:49:28.232Z,1108.0
2023-03-12T16:53:34.472Z,984.0
2023-03-12T16:58:40.855Z,788.0
2023-03-12T17:03:47.275Z,616.0
2023-03-12T17:08:53.648Z,424.0
2023-03-12T17:14:00.013Z,288.0
2023-03-12T17:19:06.385Z,220.0
2023-03-12T17:24:36.842Z,152.0
2023-03-12T17:29:19.137Z,92.0
2023-03-12T17:34:25.510Z,44.0
2023-03-12T17:39:31.921Z,24.0
2023-03-12T17:44:38.337Z,8.0
2023-03-12T17:49:44.744Z,4.0
2023-03-12T17:54:51.138Z,0.0
2023-03-12T18:00:17.576Z,0.0
2023-03-12T18:05:47.961Z,0.0
2023-03-12T18:10:34.379Z,0.0
2023-03-12T18:15:37.112Z,0.0
2023-03-12T18:20:37.498Z,0.0
2023-03-12T18:25:22.024Z,0.0
2023-03-12T18:30:38.430Z,0.0
2023-03-12T18:36:04.983Z,0.0
2023-03-12T18:41:15.251Z,0.0
2023-03-12T18:45:57.600Z,0.0
2023-03-12T18:51:04.035Z,0.0
2023-03-12T18:56:44.559Z,0.0
2023-03-12T19:02:12.205Z,0.0
2023-03-12T19:07:18.465Z,0.0
2023-03-12T19:12:30.301Z,0.0
2023-03-12T19:17:11.251Z,0.0
2023-03-12T19:22:41.670Z,0.0
2023-03-12T19:27:44.071Z,0.0
2023-03-12T19:32:21.962Z,0.0
2023-03-12T19:37:36.842Z,0.0
2023-03-12T19:43:03.428Z,0.0
2023-03-12T19:47:49.729Z,0.0
2023-03-12T19:52:56.160Z,0.0
2023-03-12T19:58:01.801Z,0.0
2023-03-12T20:03:29.348Z,0.0
2023-03-12T20:08:15.562Z,0.0
2023-03-12T20:13:46.119Z,0.0
2023-03-12T20:18:28.527Z,0.0
2023-03-12T20:23:34.997Z,0.0
2023-03-12T20:28:31.422Z,0.0
2023-03-12T20:33:47.839Z,0.0
2023-03-12T20:39:54.348Z,0.0
2023-03-12T20:44:00.600Z,0.0
2023-03-12T20:49:10.549Z,0.0
2023-03-12T20:54:40.983Z,0.0
2023-03-12T20:59:43.399Z,0.0
2023-03-12T21:04:29.707Z,0.0
2023-03-12T21:09:36.078Z,0.0
2023-03-12T21:14:42.487Z,0.0
2023-03-12T21:19:38.855Z,0.0
2023-03-12T21:24:55.236Z,0.0
2023-03-12T21:30:01.625Z,0.0
2023-03-12T21:35:08.113Z,0.0
2023-03-12T21:40:04.381Z,0.0
2023-03-12T21:45:19.804Z,0.0
2023-03-12T21:50:27.208Z,0.0
2023-03-12T21:55:33.787Z,0.0
2023-03-12T22:01:52.323Z,0.0
2023-03-12T22:05:46.524Z,0.0
2023-03-12T22:12:05.025Z,0.0
2023-03-12T22:15:59.309Z,0.0
2023-03-12T22:21:05.677Z,0.0
2023-03-12T22:26:12.199Z,0.0
2023-03-12T22:31:08.630Z,0.0
2023-03-12T22:36:24.977Z,0.0
2023-03-12T22:41:31.340Z,0.0
2023-03-12T22:47:01.894Z,0.0
2023-03-12T22:51:44.167Z,0.0
2023-03-12T22:56:50.489Z,0.0
2023-03-12T23:01:56.943Z,0.0
2023-03-12T23:07:13.663Z,0.0
2023-03-12T23:14:57.971Z,0.0
2023-03-12T23:17:40.085Z,0.0
2023-03-12T23:22:46.497Z,0.0
2023-03-12T23:27:28.889Z,0.0
2023-03-12T23:32:25.259Z,0.0
2023-03-12T23:37:31.641Z,0.0
2023-03-12T23:42:48.072Z,0.0
2023-03-12T23:48:08.440Z,0.0
2023-03-12T23:54:00.903Z,0.0
2023-03-12T23:58:31.263Z,0.0
